Time;durP1;ratioP1;P1;durP2;ratioP2;P2;SDS_P1;SDS_P2;PMS_P1;PMS_P2;Temp;Humidity;BMP_temperature;BMP_pressure;BME280_temperature;BME280_humidity;BME280_pressure;Samples;Min_cycle;Max_cycle;Signal;HPM_P1;HPM_P2
2020/04/09 00:02:00;;;;;;;17.6;12.7;;;;;;;11.66;63.16016;964.2777;;;;
2020/04/09 00:04:18;;;;;;;16;11.9;;;;;;;11.79;62.82031;964.2603;;;;
2020/04/09 00:06:43;;;;;;;16.8;12.4;;;;;;;11.73;61.7627;964.2403;;;;
2020/04/09 00:09:08;;;;;;;18.3;13.3;;;;;;;11.51;63.29785;964.2587;;;;
2020/04/09 00:11:34;;;;;;;16.7;11.6;;;;;;;11.57;63.53906;964.2153;;;;
2020/04/09 00:13:59;;;;;;;16.3;12;;;;;;;11.64;63.15723;964.2963;;;;
2020/04/09 00:16:24;;;;;;;16.7;12.4;;;;;;;11.46;64.43359;964.2424;;;;
2020/04/09 00:18:49;;;;;;;18.5;13;;;;;;;11.59;64.58008;964.2208;;;;
2020/04/09 00:22:25;;;;;;;18.1;13.1;;;;;;;11.5;66.27344;964.2285;;;;
2020/04/09 00:24:50;;;;;;;18;13.1;;;;;;;11.51;65.55957;964.1903;;;;
2020/04/09 00:27:15;;;;;;;20.3;13.3;;;;;;;11.48;67.39941;964.1911;;;;
2020/04/09 00:29:40;;;;;;;16.8;12.7;;;;;;;11.4;68.62305;964.1431;;;;
2020/04/09 00:32:05;;;;;;;17.5;12.5;;;;;;;11.42;66.08887;964.1106;;;;
2020/04/09 00:34:30;;;;;;;17;12.5;;;;;;;11.33;66.4209;964.1241;;;;
2020/04/09 00:36:55;;;;;;;18;12.3;;;;;;;11.17;67.2832;964.1506;;;;
2020/04/09 00:39:20;;;;;;;16.4;12;;;;;;;11.03;67.93066;964.1373;;;;
2020/04/09 00:41:45;;;;;;;15.5;11.7;;;;;;;11.1;67.30859;964.158;;;;
2020/04/09 00:44:11;;;;;;;16;11.9;;;;;;;11.06;67;964.1396;;;;
2020/04/09 00:46:36;;;;;;;17.5;11.7;;;;;;;11.17;66.68262;964.1309;;;;
2020/04/09 00:49:01;;;;;;;17.9;12.2;;;;;;;10.99;66.67969;964.1461;;;;
2020/04/09 00:51:26;;;;;;;14.4;11.4;;;;;;;11.12;64.94824;964.1868;;;;
2020/04/09 00:53:51;;;;;;;18.5;12.1;;;;;;;11.22;62.57617;964.1083;;;;
2020/04/09 00:56:16;;;;;;;17.1;12.5;;;;;;;11.1;64.23047;964.0046;;;;
2020/04/09 00:58:41;;;;;;;15.5;11.5;;;;;;;11.09;64.29785;963.9568;;;;
2020/04/09 01:01:07;;;;;;;16.2;12.2;;;;;;;11.09;64.55176;963.9487;;;;
2020/04/09 01:03:32;;;;;;;18.1;13.2;;;;;;;11;64.53906;963.9311;;;;
2020/04/09 01:05:57;;;;;;;19.9;14.4;;;;;;;10.78;65.56543;964.0496;;;;
2020/04/09 01:08:22;;;;;;;19;13.7;;;;;;;11.08;63.70898;964.0465;;;;
2020/04/09 01:10:47;;;;;;;19.6;14;;;;;;;10.87;63.6084;963.9816;;;;
2020/04/09 01:13:12;;;;;;;21.2;14.3;;;;;;;10.73;64.84473;963.9497;;;;
2020/04/09 01:15:37;;;;;;;21.1;14.3;;;;;;;10.7;65.3457;964.0507;;;;
2020/04/09 01:18:02;;;;;;;20.4;14.3;;;;;;;10.76;64.06445;963.9927;;;;
2020/04/09 01:20:27;;;;;;;18.3;13.4;;;;;;;10.74;64.54492;963.9386;;;;
2020/04/09 01:24:42;;;;;;;20.2;13.9;;;;;;;10.51;66.52441;963.9595;;;;
2020/04/09 01:27:16;;;;;;;19.6;14.2;;;;;;;10.58;65.47656;963.9506;;;;
2020/04/09 01:29:42;;;;;;;20.4;13.6;;;;;;;10.71;64.41504;963.8318;;;;
2020/04/09 01:32:06;;;;;;;19.8;13.4;;;;;;;10.69;65.51758;963.8304;;;;
2020/04/09 01:34:32;;;;;;;16.6;13.2;;;;;;;10.66;65.24805;963.8013;;;;
2020/04/09 01:36:58;;;;;;;19.2;13.9;;;;;;;10.46;66.2627;963.8358;;;;
2020/04/09 01:39:23;;;;;;;19.6;13.9;;;;;;;10.54;66.17188;963.8412;;;;
2020/04/09 01:41:49;;;;;;;19.1;14.2;;;;;;;10.28;67.17871;963.8628;;;;
2020/04/09 01:44:14;;;;;;;19.4;14.7;;;;;;;10.27;67.97266;963.8618;;;;
2020/04/09 01:46:39;;;;;;;22.6;14.4;;;;;;;10.47;65.53906;963.805;;;;
2020/04/09 01:49:04;;;;;;;21.7;14.7;;;;;;;10.46;66.66699;963.8416;;;;
2020/04/09 01:51:29;;;;;;;18.6;14.3;;;;;;;10.27;67.24805;963.8448;;;;
2020/04/09 01:53:54;;;;;;;20.8;14.3;;;;;;;10.34;65.68164;963.8383;;;;
2020/04/09 01:56:20;;;;;;;20.5;14;;;;;;;10.32;65.63379;963.8201;;;;
2020/04/09 01:58:45;;;;;;;20.4;14.9;;;;;;;10.26;66.58887;963.8544;;;;
2020/04/09 02:01:11;;;;;;;20.7;14.7;;;;;;;10.19;66.90137;963.8145;;;;
2020/04/09 02:03:48;;;;;;;19.6;14.2;;;;;;;10.03;68.40723;963.7858;;;;
2020/04/09 02:06:14;;;;;;;19.5;15.3;;;;;;;9.93;68.21777;963.8331;;;;
2020/04/09 02:08:39;;;;;;;18.8;14.3;;;;;;;10.13;67.75391;963.8568;;;;
2020/04/09 02:11:18;;;;;;;20.3;14.6;;;;;;;9.99;68.375;963.9235;;;;
2020/04/09 02:13:43;;;;;;;22.3;14.9;;;;;;;10.28;65.75293;963.9646;;;;
2020/04/09 02:16:11;;;;;;;19.6;14.2;;;;;;;10.15;67.67676;963.9152;;;;
2020/04/09 02:18:36;;;;;;;20.1;14.7;;;;;;;10;67.92969;963.9486;;;;
2020/04/09 02:21:01;;;;;;;22.8;14;;;;;;;10.19;66.64844;964.0189;;;;
2020/04/09 02:23:26;;;;;;;19.9;14;;;;;;;9.91;66.9375;963.954;;;;
2020/04/09 02:25:52;;;;;;;19.6;13.6;;;;;;;9.94;67.08105;963.9835;;;;
2020/04/09 02:28:17;;;;;;;18.7;14;;;;;;;9.76;68.1084;963.9626;;;;
2020/04/09 02:30:42;;;;;;;19.8;13.9;;;;;;;9.74;67.43945;964.0248;;;;
2020/04/09 02:33:07;;;;;;;21.2;14.1;;;;;;;9.69;67.08789;963.9324;;;;
2020/04/09 02:35:32;;;;;;;18.8;13.9;;;;;;;9.64;67.58496;964.0097;;;;
2020/04/09 02:37:57;;;;;;;18.6;13.3;;;;;;;9.64;68.0791;963.9763;;;;
2020/04/09 02:40:22;;;;;;;17.8;13.5;;;;;;;9.6;67.99316;963.9717;;;;
2020/04/09 02:42:48;;;;;;;16.3;12.9;;;;;;;9.65;67.97656;964.0051;;;;
2020/04/09 02:45:13;;;;;;;21;13.4;;;;;;;9.79;67.27441;963.9978;;;;
2020/04/09 02:47:38;;;;;;;17.5;12.7;;;;;;;9.79;67.25098;964.0108;;;;
2020/04/09 02:50:03;;;;;;;19.6;14;;;;;;;9.53;68.23438;964.0153;;;;
2020/04/09 02:52:29;;;;;;;16.5;13;;;;;;;9.49;68.1709;964.014;;;;
2020/04/09 02:54:55;;;;;;;17.2;12.7;;;;;;;9.42;68.70898;963.9914;;;;
2020/04/09 02:57:19;;;;;;;20;13.1;;;;;;;9.43;68.89453;964.0106;;;;
2020/04/09 02:59:45;;;;;;;16.3;13.2;;;;;;;9.4;69.0293;964.0131;;;;
2020/04/09 03:02:10;;;;;;;16.5;12.3;;;;;;;9.46;68.44141;963.9945;;;;
2020/04/09 03:04:35;;;;;;;18;13.4;;;;;;;9.36;69.8252;963.959;;;;
2020/04/09 03:07:00;;;;;;;16.9;12.7;;;;;;;9.37;69.84961;963.9252;;;;
2020/04/09 03:09:25;;;;;;;18.3;13.6;;;;;;;9.35;69.2041;963.9398;;;;
2020/04/09 03:11:50;;;;;;;19.7;12.7;;;;;;;9.52;67.92285;963.9409;;;;
2020/04/09 03:14:29;;;;;;;18.2;13.3;;;;;;;9.51;69.71094;963.9958;;;;
2020/04/09 03:16:48;;;;;;;17;13.2;;;;;;;9.37;69.54004;963.9902;;;;
2020/04/09 03:21:04;;;;;;;17.7;12.7;;;;;;;9.64;67.88379;964.087;;;;
2020/04/09 03:26:39;;;;;;;23.4;14;;;;;;;9.49;68.76855;964.0053;;;;
2020/04/09 03:28:56;;;;;;;17;13.1;;;;;;;9.66;67.34766;964.0577;;;;
2020/04/09 03:31:23;;;;;;;20.3;13.4;;;;;;;9.81;66.29102;964.03;;;;
2020/04/09 03:35:41;;;;;;;18.7;13.6;;;;;;;9.82;66.99316;964.0491;;;;
2020/04/09 03:41:33;;;;;;;18.2;13.1;;;;;;;9.86;66.56348;964.1041;;;;
2020/04/09 03:43:27;;;;;;;18.5;13.9;;;;;;;9.79;67.17285;964.1248;;;;
2020/04/09 03:50:59;;;;;;;19.9;13.6;;;;;;;9.73;66.91016;964.1962;;;;
2020/04/09 03:53:13;;;;;;;18.8;13.1;;;;;;;9.87;65.08203;964.1827;;;;
2020/04/09 03:55:39;;;;;;;18;12.9;;;;;;;9.75;66.79785;964.2048;;;;
2020/04/09 03:58:04;;;;;;;18.5;13.3;;;;;;;9.64;67.52734;964.2644;;;;
2020/04/09 04:02:27;;;;;;;20.3;13.2;;;;;;;9.59;68.65723;964.3035;;;;
2020/04/09 04:04:52;;;;;;;20.5;13.1;;;;;;;9.63;68.6748;964.2484;;;;
2020/04/09 04:07:17;;;;;;;19.2;12.9;;;;;;;9.45;68.69238;964.2291;;;;
2020/04/09 04:09:42;;;;;;;19.4;13.6;;;;;;;9.48;68.64063;964.2769;;;;
2020/04/09 04:12:07;;;;;;;16.9;13.2;;;;;;;9.38;69.26563;964.2905;;;;
2020/04/09 04:14:33;;;;;;;16.3;13.1;;;;;;;9.55;67.60547;964.2967;;;;
2020/04/09 04:16:58;;;;;;;18.3;13.3;;;;;;;9.49;67.25293;964.2567;;;;
2020/04/09 04:19:23;;;;;;;21.1;13.7;;;;;;;9.55;66.76758;964.2747;;;;
2020/04/09 04:21:48;;;;;;;17.4;13.5;;;;;;;9.56;66.87305;964.3091;;;;
2020/04/09 04:24:13;;;;;;;17.4;13.8;;;;;;;9.52;67.02734;964.3185;;;;
2020/04/09 04:26:38;;;;;;;18.5;14;;;;;;;9.38;67.74121;964.3158;;;;
2020/04/09 04:29:03;;;;;;;20.9;13.9;;;;;;;9.39;67.60352;964.3212;;;;
2020/04/09 04:31:28;;;;;;;19.8;13.5;;;;;;;9.41;67.41211;964.3379;;;;
2020/04/09 04:33:53;;;;;;;19.2;14.4;;;;;;;9.38;67.95898;964.3434;;;;
2020/04/09 04:36:18;;;;;;;20;14.3;;;;;;;9.32;68.28223;964.335;;;;
2020/04/09 04:38:43;;;;;;;19.2;14.1;;;;;;;9.4;67.7207;964.3474;;;;
2020/04/09 04:41:09;;;;;;;18.5;14.4;;;;;;;9.18;70.51953;964.3979;;;;
2020/04/09 04:43:34;;;;;;;20;14.6;;;;;;;9.07;70.78809;964.4207;;;;
2020/04/09 04:45:59;;;;;;;16.4;13.9;;;;;;;9.03;70.91895;964.4394;;;;
2020/04/09 04:48:24;;;;;;;19.9;14.2;;;;;;;8.91;71.10742;964.5034;;;;
2020/04/09 04:50:49;;;;;;;18.1;14;;;;;;;9.13;69.94824;964.4763;;;;
2020/04/09 04:53:14;;;;;;;21.7;15.2;;;;;;;9.15;69.31055;964.5083;;;;
2020/04/09 04:55:39;;;;;;;19.2;14.8;;;;;;;9.11;70.41699;964.4724;;;;
2020/04/09 04:58:05;;;;;;;22.8;15.1;;;;;;;9.07;71.32715;964.5287;;;;
2020/04/09 05:00:30;;;;;;;19.4;14.2;;;;;;;9.1;71.45801;964.4907;;;;
2020/04/09 05:02:56;;;;;;;18.6;14.2;;;;;;;9.01;71.74121;964.5535;;;;
2020/04/09 05:05:21;;;;;;;20.8;14.8;;;;;;;8.95;73.88672;964.5549;;;;
2020/04/09 05:07:46;;;;;;;18.6;14.5;;;;;;;9.13;71.41699;964.5373;;;;
2020/04/09 05:10:12;;;;;;;18.7;14.6;;;;;;;9.04;70.75977;964.5806;;;;
2020/04/09 05:12:38;;;;;;;19.6;14;;;;;;;9.19;69.16602;964.5723;;;;
2020/04/09 05:15:03;;;;;;;19.7;15.1;;;;;;;9.27;69.81152;964.6537;;;;
2020/04/09 05:17:28;;;;;;;20.3;14.3;;;;;;;9.28;68.62012;964.6624;;;;
2020/04/09 05:19:54;;;;;;;18.6;14.3;;;;;;;9.35;68.27441;964.7751;;;;
2020/04/09 05:22:19;;;;;;;20.8;14.3;;;;;;;9.35;68.45801;964.7589;;;;
2020/04/09 05:24:46;;;;;;;19.8;13.9;;;;;;;9.39;68.24609;964.8243;;;;
2020/04/09 05:27:11;;;;;;;19.3;14.5;;;;;;;9.35;70.25977;964.837;;;;
2020/04/09 05:29:37;;;;;;;19.9;14.3;;;;;;;9.36;69.89453;964.87;;;;
2020/04/09 05:32:02;;;;;;;22.5;13.7;;;;;;;9.36;69.79102;964.8814;;;;
2020/04/09 05:34:27;;;;;;;21.1;14.6;;;;;;;9.3;70.02344;964.9389;;;;
2020/04/09 05:36:54;;;;;;;25;14.4;;;;;;;9.47;67.97168;964.9686;;;;
2020/04/09 05:39:20;;;;;;;21.8;14.5;;;;;;;9.51;67.09473;964.9469;;;;
2020/04/09 05:41:45;;;;;;;19.8;14.4;;;;;;;9.59;67.34863;964.9584;;;;
2020/04/09 05:44:10;;;;;;;22.8;14.3;;;;;;;9.63;67.77734;964.9702;;;;
2020/04/09 05:46:36;;;;;;;21.4;14.4;;;;;;;9.68;66.90332;964.9419;;;;
2020/04/09 05:49:02;;;;;;;20.5;14.2;;;;;;;9.79;67.22852;964.9143;;;;
2020/04/09 05:51:28;;;;;;;20.9;14.3;;;;;;;9.85;66.72266;964.9659;;;;
2020/04/09 05:53:53;;;;;;;20.6;14.9;;;;;;;9.95;67.70313;964.9833;;;;
2020/04/09 05:56:19;;;;;;;23.2;14.8;;;;;;;9.99;65.53809;965.0207;;;;
2020/04/09 05:58:44;;;;;;;23.4;14.4;;;;;;;9.98;65.06543;965.0275;;;;
2020/04/09 06:01:10;;;;;;;21;14.7;;;;;;;10.08;65.65527;965.0429;;;;
2020/04/09 06:03:35;;;;;;;21.1;14.8;;;;;;;10.22;66.28516;965.0623;;;;
2020/04/09 06:06:00;;;;;;;21.2;14.8;;;;;;;10.18;65.4502;965.1035;;;;
2020/04/09 06:08:26;;;;;;;22.2;14.5;;;;;;;10.32;66.64648;965.0559;;;;
2020/04/09 06:10:51;;;;;;;25;14.9;;;;;;;10.35;66.77734;965.1102;;;;
2020/04/09 06:13:18;;;;;;;24.6;15.2;;;;;;;10.54;64.58496;965.1451;;;;
2020/04/09 06:15:43;;;;;;;21.8;14.4;;;;;;;10.49;64.10547;965.1306;;;;
2020/04/09 06:18:09;;;;;;;20.7;14.4;;;;;;;10.59;64.86816;965.1785;;;;
2020/04/09 06:20:37;;;;;;;21.6;14;;;;;;;10.63;63.91895;965.1754;;;;
2020/04/09 06:23:06;;;;;;;21.4;14;;;;;;;10.71;63.4707;965.2022;;;;
2020/04/09 06:25:35;;;;;;;22.7;14.7;;;;;;;10.84;64.29492;965.2578;;;;
2020/04/09 06:37:48;;;;;;;20.1;14.3;;;;;;;11.17;61.02539;965.282;;;;
2020/04/09 06:42:35;;;;;;;25.6;15.1;;;;;;;11.46;60.0625;965.2838;;;;
2020/04/09 06:44:48;;;;;;;21;14.6;;;;;;;11.55;61.05664;965.317;;;;
2020/04/09 06:47:13;;;;;;;21.8;13.3;;;;;;;11.66;59.79004;965.2958;;;;
2020/04/09 06:49:38;;;;;;;23.9;13.7;;;;;;;11.74;58.72754;965.27;;;;
2020/04/09 06:52:03;;;;;;;24.4;13.6;;;;;;;12.07;58.93555;965.2862;;;;
2020/04/09 06:54:28;;;;;;;23.9;13.9;;;;;;;12.1;57.78418;965.2933;;;;
2020/04/09 06:56:54;;;;;;;21.8;15;;;;;;;11.97;58.1123;965.288;;;;
2020/04/09 06:59:20;;;;;;;21.5;13.8;;;;;;;12.08;57.93066;965.3033;;;;
2020/04/09 07:01:46;;;;;;;19.8;14.2;;;;;;;12.04;58.2041;965.3091;;;;
2020/04/09 07:04:11;;;;;;;23.3;14.1;;;;;;;12;58.16211;965.2879;;;;
2020/04/09 07:06:37;;;;;;;24.8;14.8;;;;;;;12.07;57.61816;965.2673;;;;
2020/04/09 07:09:02;;;;;;;19.2;13.8;;;;;;;12.26;56.99512;965.3164;;;;
2020/04/09 07:11:27;;;;;;;21.5;14;;;;;;;12.29;56.83691;965.3603;;;;
2020/04/09 07:13:52;;;;;;;21.6;13.9;;;;;;;12.6;56.20898;965.4088;;;;
2020/04/09 07:16:19;;;;;;;22.4;14.2;;;;;;;12.86;56.55371;965.4056;;;;
2020/04/09 07:18:44;;;;;;;20.2;13.8;;;;;;;12.79;55.88574;965.5033;;;;
2020/04/09 07:21:10;;;;;;;18.6;13.7;;;;;;;12.93;55.66113;965.4547;;;;
2020/04/09 07:23:35;;;;;;;18.8;13.7;;;;;;;13.14;55.54883;965.4791;;;;
2020/04/09 07:26:10;;;;;;;20.5;14.2;;;;;;;13.24;54.88965;965.5209;;;;
2020/04/09 07:28:35;;;;;;;21;16.1;;;;;;;13.31;54.72656;965.5514;;;;
2020/04/09 07:31:00;;;;;;;20.4;13.8;;;;;;;13.33;55.18945;965.5392;;;;
2020/04/09 07:33:25;;;;;;;21.5;13.4;;;;;;;13.33;54.86523;965.4999;;;;
2020/04/09 07:35:50;;;;;;;20.1;14.1;;;;;;;13.46;54.11719;965.4825;;;;
2020/04/09 07:38:15;;;;;;;17.8;13.7;;;;;;;13.57;53.45996;965.5172;;;;
2020/04/09 07:40:40;;;;;;;23.3;14;;;;;;;13.47;53.8877;965.5492;;;;
2020/04/09 07:43:05;;;;;;;19.8;13.3;;;;;;;13.67;53.28711;965.5224;;;;
2020/04/09 07:45:30;;;;;;;20.9;14.6;;;;;;;13.83;53.02832;965.5167;;;;
2020/04/09 07:47:56;;;;;;;20.5;13.9;;;;;;;13.95;53.06543;965.5292;;;;
2020/04/09 07:50:21;;;;;;;21.5;13.7;;;;;;;14.03;51.55566;965.4868;;;;
2020/04/09 07:52:46;;;;;;;18.6;13.1;;;;;;;14.24;51.66211;965.5542;;;;
2020/04/09 07:55:11;;;;;;;18.1;13.5;;;;;;;14.28;51.31836;965.5309;;;;
2020/04/09 07:57:36;;;;;;;18.1;12.6;;;;;;;14.35;50.84961;965.5957;;;;
2020/04/09 08:00:01;;;;;;;18.4;13.1;;;;;;;14.28;51.48047;965.6259;;;;
2020/04/09 08:02:26;;;;;;;20.8;12.5;;;;;;;14.45;51.2207;965.6847;;;;
2020/04/09 08:04:51;;;;;;;16.2;12.3;;;;;;;14.65;51.37402;965.7067;;;;
2020/04/09 08:07:22;;;;;;;18.8;12.7;;;;;;;14.69;51.51758;965.7657;;;;
2020/04/09 08:09:46;;;;;;;15.7;12.4;;;;;;;14.71;51.58887;965.787;;;;
2020/04/09 08:12:11;;;;;;;18.3;12.4;;;;;;;14.81;51.25195;965.7902;;;;
2020/04/09 08:14:36;;;;;;;19.1;12.6;;;;;;;14.9;50.65918;965.7528;;;;
2020/04/09 08:17:01;;;;;;;19.7;13;;;;;;;14.99;50.5293;965.7256;;;;
2020/04/09 08:19:26;;;;;;;16.1;12.3;;;;;;;15.06;50.50391;965.7792;;;;
2020/04/09 08:21:52;;;;;;;21;13.5;;;;;;;15.19;49.50586;965.7847;;;;
2020/04/09 08:24:17;;;;;;;18.8;12.1;;;;;;;15.39;46.4209;965.8395;;;;
2020/04/09 08:26:42;;;;;;;16.7;12;;;;;;;15.55;45.85645;965.8689;;;;
2020/04/09 08:29:07;;;;;;;18.9;12.3;;;;;;;15.58;44.89258;965.875;;;;
2020/04/09 08:32:00;;;;;;;18.2;12.8;;;;;;;15.74;45.49219;965.8622;;;;
2020/04/09 08:34:25;;;;;;;20.3;13.1;;;;;;;15.9;45.67188;965.8405;;;;
2020/04/09 08:36:51;;;;;;;24;14.4;;;;;;;15.86;46.63379;965.8558;;;;
2020/04/09 08:39:17;;;;;;;16.4;12.3;;;;;;;16.04;44.20508;965.8236;;;;
2020/04/09 08:41:41;;;;;;;19.8;12.8;;;;;;;16.07;44.26855;965.8436;;;;
2020/04/09 08:44:06;;;;;;;19.3;13.2;;;;;;;16.07;44.1748;965.8272;;;;
2020/04/09 08:46:31;;;;;;;20.6;12.9;;;;;;;16.19;45.0957;965.8602;;;;
2020/04/09 08:48:56;;;;;;;16.5;11.7;;;;;;;16.26;41.87305;965.8564;;;;
2020/04/09 08:51:21;;;;;;;16;11.4;;;;;;;16.2;42.82227;965.8477;;;;
2020/04/09 08:53:46;;;;;;;17.4;11.9;;;;;;;16.12;42.44238;965.8761;;;;
2020/04/09 08:56:11;;;;;;;14.5;10.5;;;;;;;16.27;39.51758;965.8811;;;;
2020/04/09 08:58:36;;;;;;;16.6;10.6;;;;;;;16.48;39.96777;965.8702;;;;
2020/04/09 09:01:02;;;;;;;15.5;10.2;;;;;;;16.77;37.53223;965.8672;;;;
2020/04/09 09:03:27;;;;;;;14.9;10.6;;;;;;;16.67;36.19336;965.8492;;;;
2020/04/09 09:05:52;;;;;;;14.1;9.6;;;;;;;16.65;36.08691;965.8655;;;;
2020/04/09 09:08:17;;;;;;;15.4;9.7;;;;;;;16.56;36.80176;965.8188;;;;
2020/04/09 09:10:42;;;;;;;18.4;9.4;;;;;;;16.7;34.64355;965.8798;;;;
2020/04/09 09:13:18;;;;;;;14.6;9.3;;;;;;;16.96;35.41113;965.8658;;;;
2020/04/09 09:15:43;;;;;;;13.4;10.2;;;;;;;16.98;35.16797;965.8781;;;;
2020/04/09 09:18:08;;;;;;;17.2;9.9;;;;;;;17.11;36.29883;965.8983;;;;
2020/04/09 09:20:33;;;;;;;15.3;10.3;;;;;;;16.94;34.97754;965.8936;;;;
2020/04/09 09:22:58;;;;;;;16.4;10;;;;;;;17.05;35.75684;965.8453;;;;
2020/04/09 09:25:25;;;;;;;17.4;10.9;;;;;;;17.1;35.62109;965.8481;;;;
2020/04/09 09:27:50;;;;;;;14.3;9.6;;;;;;;17.22;35.80566;965.865;;;;
2020/04/09 09:30:17;;;;;;;15.4;9.5;;;;;;;17.53;35.16504;965.8825;;;;
2020/04/09 09:32:45;;;;;;;19.1;10.2;;;;;;;17.62;34.97266;965.824;;;;
2020/04/09 09:38:21;;;;;;;15.1;9.4;;;;;;;17.63;34.07227;965.8422;;;;
2020/04/09 09:40:06;;;;;;;14.4;9.5;;;;;;;17.77;33.85059;965.9158;;;;
2020/04/09 09:42:46;;;;;;;18.7;10;;;;;;;17.92;33.22949;965.8278;;;;
2020/04/09 09:45:04;;;;;;;15.4;10;;;;;;;17.81;34.41504;965.8914;;;;
2020/04/09 09:51:14;;;;;;;16;9.1;;;;;;;17.81;33.36133;965.8378;;;;
2020/04/09 09:53:50;;;;;;;14.6;8.8;;;;;;;17.93;33.62891;965.7851;;;;
2020/04/09 09:56:43;;;;;;;11.6;8.2;;;;;;;18.04;31.92773;965.7662;;;;
2020/04/09 09:58:38;;;;;;;14.7;8.3;;;;;;;18.18;32.90918;965.7626;;;;
2020/04/09 10:04:40;;;;;;;13.4;8.3;;;;;;;18.35;31.97363;965.7584;;;;
2020/04/09 10:05:52;;;;;;;12.2;8.5;;;;;;;18.27;32.1084;965.7039;;;;
2020/04/09 10:08:14;;;;;;;14.2;8.8;;;;;;;18.32;32.87402;965.7378;;;;
2020/04/09 10:10:58;;;;;;;12.3;8.3;;;;;;;18.1;33.11426;965.6605;;;;
2020/04/09 10:13:25;;;;;;;15.8;9.5;;;;;;;18.18;33.31934;965.6553;;;;
2020/04/09 10:15:54;;;;;;;15.3;9.9;;;;;;;18.14;34.38184;965.6522;;;;
2020/04/09 10:18:11;;;;;;;13.1;8.9;;;;;;;18.32;33.17871;965.5983;;;;
2020/04/09 10:20:37;;;;;;;11.4;8.1;;;;;;;18.51;32.33594;965.5683;;;;
2020/04/09 10:23:00;;;;;;;15.8;9.5;;;;;;;18.58;32.03711;965.5624;;;;
2020/04/09 10:25:28;;;;;;;13;8.4;;;;;;;18.53;32.2793;965.5344;;;;
2020/04/09 10:27:50;;;;;;;12.6;8.5;;;;;;;18.77;31.39453;965.6099;;;;
2020/04/09 10:31:16;;;;;;;13.9;9.8;;;;;;;18.51;31.86719;965.5649;;;;
2020/04/09 10:32:59;;;;;;;15.5;9.6;;;;;;;18.23;31.69531;965.5466;;;;
2020/04/09 10:37:47;;;;;;;16.6;9.6;;;;;;;18.4;31.33203;965.528;;;;
2020/04/09 10:41:21;;;;;;;15.1;8.4;;;;;;;18.66;31.66797;965.4959;;;;
2020/04/09 10:43:43;;;;;;;16.4;9.1;;;;;;;18.67;32.44141;965.492;;;;
2020/04/09 10:46:09;;;;;;;10.9;8.2;;;;;;;18.64;30.95117;965.4533;;;;
2020/04/09 10:48:34;;;;;;;14;8.2;;;;;;;18.69;31.22461;965.4084;;;;
2020/04/09 10:51:00;;;;;;;11.1;7.2;;;;;;;18.83;29.22754;965.4133;;;;
2020/04/09 10:53:25;;;;;;;11.6;7.2;;;;;;;19;28.98145;965.4127;;;;
2020/04/09 10:55:51;;;;;;;8.8;6.9;;;;;;;19.25;28.69336;965.4178;;;;
2020/04/09 10:58:16;;;;;;;9.9;6.7;;;;;;;18.77;29.04785;965.43;;;;
2020/04/09 11:00:42;;;;;;;11.7;6.5;;;;;;;19.1;28.28418;965.3972;;;;
2020/04/09 11:03:09;;;;;;;14.4;8;;;;;;;19.19;28.87598;965.3752;;;;
2020/04/09 11:05:34;;;;;;;12.5;8;;;;;;;19.08;28.96289;965.3732;;;;
2020/04/09 11:07:59;;;;;;;12.8;7.4;;;;;;;18.89;29.6084;965.2997;;;;
2020/04/09 11:10:24;;;;;;;9.4;6.7;;;;;;;19.25;28.85742;965.3442;;;;
2020/04/09 11:12:50;;;;;;;9.1;6.6;;;;;;;19.1;29.48145;965.3203;;;;
2020/04/09 11:15:15;;;;;;;9;6.5;;;;;;;19.14;28.62695;965.2762;;;;
2020/04/09 11:17:40;;;;;;;8.4;6.2;;;;;;;19.27;29.44531;965.2377;;;;
2020/04/09 11:20:06;;;;;;;10.3;6.5;;;;;;;19.15;29.00293;965.3111;;;;
2020/04/09 11:22:31;;;;;;;8.6;6.1;;;;;;;19.43;28.29297;965.3499;;;;
2020/04/09 11:24:58;;;;;;;11;6.3;;;;;;;19.29;28.36621;965.3323;;;;
2020/04/09 11:27:23;;;;;;;7.7;6.4;;;;;;;19.28;28.92969;965.3084;;;;
2020/04/09 11:29:48;;;;;;;13.3;6.8;;;;;;;19.24;29.10254;965.3031;;;;
2020/04/09 11:32:13;;;;;;;9.7;6.6;;;;;;;19.44;29.16309;965.2505;;;;
2020/04/09 11:34:38;;;;;;;11.7;6.5;;;;;;;19.61;28.9043;965.222;;;;
2020/04/09 11:37:07;;;;;;;9.4;6.9;;;;;;;19.6;29.0791;965.1851;;;;
2020/04/09 11:39:30;;;;;;;11.3;6.8;;;;;;;19.4;29.23145;965.1863;;;;
2020/04/09 11:41:55;;;;;;;14;7.1;;;;;;;19.56;29.79395;965.1727;;;;
2020/04/09 11:44:21;;;;;;;10.1;7.5;;;;;;;19.49;29.16699;965.2228;;;;
2020/04/09 11:46:46;;;;;;;10.5;7.1;;;;;;;19.54;28.89941;965.2451;;;;
2020/04/09 11:49:13;;;;;;;11.8;7;;;;;;;19.83;28.17773;965.2141;;;;
2020/04/09 11:51:39;;;;;;;9.2;7.2;;;;;;;19.55;29.27539;965.1796;;;;
2020/04/09 11:54:09;;;;;;;10.9;6.7;;;;;;;19.62;29.78613;965.1325;;;;
2020/04/09 11:56:29;;;;;;;10;6.4;;;;;;;19.53;29.9209;965.1448;;;;
2020/04/09 11:58:55;;;;;;;9.2;7.1;;;;;;;19.43;29.06836;965.1902;;;;
2020/04/09 12:01:27;;;;;;;10.4;6.5;;;;;;;19.41;29.21973;965.1555;;;;
2020/04/09 12:04:37;;;;;;;11.7;7.2;;;;;;;19.37;29.39355;965.1153;;;;
2020/04/09 12:06:10;;;;;;;9.2;6.5;;;;;;;19.53;29.76758;965.0779;;;;
2020/04/09 12:08:35;;;;;;;11.4;6.9;;;;;;;19.75;28.90137;964.9899;;;;
2020/04/09 12:11:00;;;;;;;10.3;6.8;;;;;;;19.85;29.2373;964.9988;;;;
2020/04/09 12:13:28;;;;;;;9.8;6.7;;;;;;;20.05;28.94434;965.0278;;;;
2020/04/09 12:16:03;;;;;;;10.3;6.4;;;;;;;20.05;27.78027;965.0575;;;;
2020/04/09 12:18:24;;;;;;;10.9;6.9;;;;;;;20.12;27.57324;965.0162;;;;
2020/04/09 12:20:43;;;;;;;10.1;6.5;;;;;;;19.91;28.85254;965.0472;;;;
2020/04/09 12:23:13;;;;;;;9.2;6.3;;;;;;;20.01;28.12988;965.0106;;;;
2020/04/09 12:25:48;;;;;;;8.4;6.6;;;;;;;20.27;28.35938;965.0173;;;;
2020/04/09 12:27:57;;;;;;;9.8;6.8;;;;;;;20.31;28.34961;965.0309;;;;
2020/04/09 12:30:27;;;;;;;10;6.6;;;;;;;20.58;26.91797;964.9579;;;;
2020/04/09 12:40:04;;;;;;;10.3;6.6;;;;;;;20.4;27.80176;964.8039;;;;
2020/04/09 12:42:29;;;;;;;11.4;6.5;;;;;;;20.85;27.15918;964.809;;;;
2020/04/09 12:44:55;;;;;;;12.8;6.3;;;;;;;21.02;26.85156;964.8272;;;;
2020/04/09 12:47:20;;;;;;;7.5;6.5;;;;;;;20.83;27.33398;964.8077;;;;
2020/04/09 12:49:45;;;;;;;10.2;6.4;;;;;;;20.79;27.94531;964.7608;;;;
2020/04/09 12:52:11;;;;;;;8;6.6;;;;;;;20.82;27.53418;964.7422;;;;
2020/04/09 12:54:36;;;;;;;10.5;7;;;;;;;20.87;26.97168;964.6404;;;;
2020/04/09 12:57:05;;;;;;;8.9;6.6;;;;;;;21.19;27.0498;964.6809;;;;
2020/04/09 12:59:27;;;;;;;9.1;6.9;;;;;;;20.65;27.71191;964.6799;;;;
2020/04/09 13:01:54;;;;;;;10.2;6.7;;;;;;;20.37;27.92871;964.5989;;;;
2020/04/09 13:04:19;;;;;;;10;7;;;;;;;20.64;27.47656;964.5341;;;;
2020/04/09 13:06:44;;;;;;;11.7;6.7;;;;;;;20.75;27.48242;964.5641;;;;
2020/04/09 13:09:10;;;;;;;11.3;6.5;;;;;;;21;26.94434;964.5656;;;;
2020/04/09 13:11:35;;;;;;;11.6;7.5;;;;;;;21.16;26.77734;964.5991;;;;
2020/04/09 13:14:00;;;;;;;9;6.6;;;;;;;20.75;27.11719;964.5674;;;;
2020/04/09 13:16:25;;;;;;;11.1;6.7;;;;;;;20.71;27.65723;964.5125;;;;
2020/04/09 13:18:50;;;;;;;7.6;6.1;;;;;;;21.52;25.71289;964.5278;;;;
2020/04/09 13:21:15;;;;;;;9.1;6.3;;;;;;;21.62;25.4707;964.4953;;;;
2020/04/09 13:23:40;;;;;;;9.2;6.2;;;;;;;21.49;26.47852;964.4592;;;;
2020/04/09 13:26:05;;;;;;;8.6;5.8;;;;;;;21.4;27.00391;964.4698;;;;
2020/04/09 13:28:32;;;;;;;8.1;6.1;;;;;;;21.52;26.1377;964.5269;;;;
2020/04/09 13:30:57;;;;;;;9;6.9;;;;;;;21.45;26.09863;964.5066;;;;
2020/04/09 13:33:24;;;;;;;9.6;6.1;;;;;;;21.38;26.01172;964.4692;;;;
2020/04/09 13:35:49;;;;;;;8.8;6.1;;;;;;;21.7;25.90039;964.416;;;;
2020/04/09 13:38:15;;;;;;;9;7.2;;;;;;;21.14;25.93848;964.4137;;;;
2020/04/09 13:40:40;;;;;;;11.1;6.7;;;;;;;21.19;26.4248;964.3774;;;;
2020/04/09 13:43:05;;;;;;;39.5;8.1;;;;;;;21;28.33496;964.4374;;;;
2020/04/09 13:45:32;;;;;;;16.1;6.7;;;;;;;21.28;27.4209;964.3546;;;;
2020/04/09 13:47:58;;;;;;;11.8;6.7;;;;;;;21.23;27.5127;964.3708;;;;
2020/04/09 13:50:24;;;;;;;6.5;5.6;;;;;;;21.14;26.97656;964.3052;;;;
2020/04/09 13:52:50;;;;;;;9;5.7;;;;;;;21.5;26.125;964.3114;;;;
2020/04/09 13:55:15;;;;;;;10;5.9;;;;;;;21.44;26.21582;964.3273;;;;
2020/04/09 13:57:42;;;;;;;8.1;5.9;;;;;;;21.19;26.82617;964.2214;;;;
2020/04/09 14:00:07;;;;;;;9.7;6.4;;;;;;;21.06;26.18164;964.2882;;;;
2020/04/09 14:02:33;;;;;;;9.5;6.6;;;;;;;21.08;26.35938;964.2057;;;;
2020/04/09 14:04:58;;;;;;;9.9;6.3;;;;;;;20.95;30.22949;964.2217;;;;
2020/04/09 14:07:24;;;;;;;8.2;6.4;;;;;;;21.06;26.93555;964.2475;;;;
2020/04/09 14:09:49;;;;;;;10.4;7.2;;;;;;;21.12;26.33887;964.2076;;;;
2020/04/09 14:12:14;;;;;;;7.1;6.3;;;;;;;21.11;27.48145;964.2234;;;;
2020/04/09 14:14:41;;;;;;;8.9;6.9;;;;;;;21.22;27.59473;964.2186;;;;
2020/04/09 14:17:06;;;;;;;10.5;6.7;;;;;;;21.4;27.2041;964.2242;;;;
2020/04/09 14:19:31;;;;;;;8.6;7;;;;;;;21.34;27.01172;964.1746;;;;
2020/04/09 14:21:56;;;;;;;11.3;7.3;;;;;;;21.13;28.03711;964.176;;;;
2020/04/09 14:24:21;;;;;;;9.7;7.4;;;;;;;21.35;27.08301;964.15;;;;
2020/04/09 14:26:46;;;;;;;10.1;6.5;;;;;;;21.4;27.72363;964.09;;;;
2020/04/09 14:29:11;;;;;;;9.3;7.1;;;;;;;21.11;27.55273;964.0908;;;;
2020/04/09 14:31:36;;;;;;;9.8;7.3;;;;;;;21.54;26.95313;964.139;;;;
2020/04/09 14:34:01;;;;;;;12.3;7.4;;;;;;;21.41;27.19336;964.0675;;;;
2020/04/09 14:36:26;;;;;;;10;7;;;;;;;21.16;28.53418;963.9948;;;;
2020/04/09 14:38:51;;;;;;;8.5;7.4;;;;;;;21.1;27.46875;963.9999;;;;
2020/04/09 14:41:17;;;;;;;10.3;7.6;;;;;;;21.12;28.24805;964.0121;;;;
2020/04/09 14:43:42;;;;;;;10.5;7.3;;;;;;;20.96;28.29688;963.9364;;;;
2020/04/09 14:46:07;;;;;;;10.7;7.2;;;;;;;21.05;28.00781;963.9758;;;;
2020/04/09 14:48:33;;;;;;;8;6.6;;;;;;;20.94;27.91797;963.9526;;;;
2020/04/09 14:50:58;;;;;;;12.1;6.8;;;;;;;21.33;28.93359;963.9631;;;;
2020/04/09 14:53:25;;;;;;;9.2;6.5;;;;;;;21.26;28.89355;963.9741;;;;